Terminal Aerodrome Forecast
Issued by NWS Sioux Falls, SD

Home | Current Version | Previous Version | Graphics & Text | Print | Product List | Glossary On
Versions: 1 2 3 4 5 6 7 8 9 10 11 12 13 14
000
FTUS43 KFSD 091700
TAFHON
TAF
KHON 091730Z 0918/1018 35007KT 6SM FU SCT050
     FM092200 06007KT P6SM SCT060
     FM100200 10005KT P6SM SKC
     FM101000 12009KT P6SM BKN120
     FM101400 14016G23KT P6SM BKN150=

USA.gov is the U.S. government's official web portal to all federal, state and local government web resources and services.